SE Lincoln WX Station Historical Data
 
Daily Summary for January 25, 2022 Units:  English    Metric   Both
Daily Weekly Monthly Yearly
  Current: High: Low: Average:
Temperature: 14 °F 14 °F 6.8 °F 9.6 °F
Dew Point: 3.7 °F 5.1 °F 0.4 °F 2 °F
Humidity: 63% 76% 63% 71%
Wind Speed: 1.8mph 3.2mph 0.2mph 1.4mph
Wind Gust: 5mph 7mph - -
WindNW - - SE
Pressure: 30.51 in 30.51 in 30.29 in -
Precipitation: 0.00 in      
 
 
Tabular Data for January 25, 2022
Time Temperature Dew Point Pressure Wind Wind Speed Wind Gust Humidity Rainfall Rate (Hourly) solar
00:04 13.6 °F 5.1 °F 30.29 in North 1.8 mph 4 mph 68% 0.00 in 0 W/m2
00:09 13.5 °F 5 °F 30.29 in NE 1.4 mph 3 mph 68% 0.00 in 0 W/m2
00:14 13.4 °F 4.8 °F 30.30 in NNE 1.7 mph 4 mph 68% 0.00 in 0 W/m2
00:19 13.3 °F 4.8 °F 30.30 in NNW 1.7 mph 4 mph 68% 0.00 in 0 W/m2
00:24 13.2 °F 4.6 °F 30.30 in North 0.4 mph 4 mph 68% 0.00 in 0 W/m2
00:29 13.1 °F 4.5 °F 30.30 in NNW 1.6 mph 4 mph 68% 0.00 in 0 W/m2
00:34 13 °F 4.4 °F 30.30 in North 1.8 mph 4 mph 68% 0.00 in 0 W/m2
00:39 12.9 °F 4.3 °F 30.30 in NNW 0.7 mph 3 mph 68% 0.00 in 0 W/m2
00:44 12.8 °F 4.5 °F 30.30 in NE 1 mph 3 mph 68.7% 0.00 in 0 W/m2
00:49 12.7 °F 4.5 °F 30.30 in North 1.5 mph 4 mph 69% 0.00 in 0 W/m2
00:54 12.6 °F 4.4 °F 30.30 in NNW 2.6 mph 5 mph 69% 0.00 in 0 W/m2
00:59 12.5 °F 4.3 °F 30.30 in North 1.2 mph 5 mph 69% 0.00 in 0 W/m2
01:04 12.4 °F 4.2 °F 30.30 in NNE 0.5 mph 4 mph 69% 0.00 in 0 W/m2
01:09 12.3 °F 4.1 °F 30.30 in NE 1.5 mph 5 mph 69% 0.00 in 0 W/m2
01:14 12.2 °F 4 °F 30.30 in North 1.9 mph 5 mph 68.9% 0.00 in 0 W/m2
01:19 12.1 °F 3.7 °F 30.31 in North 2.4 mph 5 mph 68.5% 0.00 in 0 W/m2
01:24 12 °F 3.5 °F 30.31 in NNE 2.5 mph 5 mph 68% 0.00 in 0 W/m2
01:29 11.9 °F 3.4 °F 30.31 in ENE 1.5 mph 5 mph 68% 0.00 in 0 W/m2
01:34 11.8 °F 3.3 °F 30.32 in ENE 1.2 mph 3 mph 68.1% 0.00 in 0 W/m2
01:39 11.7 °F 3.5 °F 30.32 in ENE 1 mph 2 mph 69% 0.00 in 0 W/m2
01:44 11.5 °F 3.3 °F 30.32 in NE 1.5 mph 4 mph 68.8% 0.00 in 0 W/m2
01:49 11.5 °F 3.3 °F 30.32 in NE 1 mph 4 mph 69% 0.00 in 0 W/m2
01:54 11.3 °F 3.1 °F 30.32 in NNE 2.3 mph 6 mph 68.8% 0.00 in 0 W/m2
01:59 11.2 °F 2.7 °F 30.32 in NE 2.6 mph 5 mph 68% 0.00 in 0 W/m2
02:04 11.2 °F 2.7 °F 30.32 in North 2.1 mph 5 mph 68% 0.00 in 0 W/m2
02:09 11 °F 2.6 °F 30.33 in North 1.9 mph 5 mph 68% 0.00 in 0 W/m2
02:14 10.9 °F 2.5 °F 30.33 in North 2.4 mph 5 mph 68% 0.00 in 0 W/m2
02:19 10.8 °F 2.4 °F 30.33 in North 2.5 mph 6 mph 68% 0.00 in 0 W/m2
02:24 10.7 °F 2.3 °F 30.34 in NNE 1.8 mph 5 mph 68% 0.00 in 0 W/m2
02:29 10.6 °F 2.2 °F 30.34 in North 1 mph 4 mph 68% 0.00 in 0 W/m2
02:34 10.6 °F 2.1 °F 30.34 in NNW 2.1 mph 6 mph 68% 0.00 in 0 W/m2
02:39 10.4 °F 2 °F 30.34 in NNE 1.3 mph 5 mph 68% 0.00 in 0 W/m2
02:44 10.3 °F 1.9 °F 30.34 in NNW 1.7 mph 5 mph 68% 0.00 in 0 W/m2
02:49 10.2 °F 1.8 °F 30.35 in NNE 1.5 mph 4 mph 68.1% 0.00 in 0 W/m2
02:54 10.1 °F 2 °F 30.35 in NE 1.4 mph 6 mph 69% 0.00 in 0 W/m2
02:59 10 °F 1.9 °F 30.35 in NNW 1.6 mph 4 mph 69% 0.00 in 0 W/m2
03:04 10 °F 1.8 °F 30.35 in NNE 1.8 mph 4 mph 69% 0.00 in 0 W/m2
03:09 9.9 °F 1.8 °F 30.35 in NNE 2.2 mph 5 mph 69% 0.00 in 0 W/m2
03:14 9.8 °F 1.7 °F 30.35 in NE 1.9 mph 6 mph 69% 0.00 in 0 W/m2
03:19 9.7 °F 1.6 °F 30.35 in ENE 0.9 mph 5 mph 69% 0.00 in 0 W/m2
03:24 9.6 °F 1.5 °F 30.35 in NE 1.5 mph 4 mph 69% 0.00 in 0 W/m2
03:29 9.5 °F 1.6 °F 30.35 in NE 1.5 mph 4 mph 69.7% 0.00 in 0 W/m2
03:34 9.4 °F 1.6 °F 30.35 in NNE 1.8 mph 5 mph 70% 0.00 in 0 W/m2
03:39 9.3 °F 1.5 °F 30.35 in North 2.9 mph 7 mph 70% 0.00 in 0 W/m2
03:44 9.1 °F 1.4 °F 30.34 in NNE 1.8 mph 5 mph 70% 0.00 in 0 W/m2
03:49 9.1 °F 1.3 °F 30.34 in NNE 2.1 mph 5 mph 70.1% 0.00 in 0 W/m2
03:54 9 °F 1.5 °F 30.35 in NE 1.9 mph 6 mph 71% 0.00 in 0 W/m2
03:59 8.9 °F 1.4 °F 30.35 in NNE 1.4 mph 4 mph 71% 0.00 in 0 W/m2
04:04 8.9 °F 1.4 °F 30.36 in NE 1.6 mph 4 mph 71% 0.00 in 0 W/m2
04:09 8.8 °F 1.4 °F 30.36 in NE 2 mph 6 mph 71% 0.00 in 0 W/m2
04:14 8.8 °F 1.3 °F 30.37 in NE 2 mph 4 mph 71% 0.00 in 0 W/m2
04:19 8.7 °F 1.3 °F 30.37 in NNE 1.6 mph 4 mph 71% 0.00 in 0 W/m2
04:24 8.7 °F 1.2 °F 30.38 in North 1.2 mph 4 mph 71% 0.00 in 0 W/m2
04:29 8.6 °F 1.1 °F 30.37 in NE 0.4 mph 2 mph 71% 0.00 in 0 W/m2
04:34 8.5 °F 1.1 °F 30.38 in North 1.3 mph 4 mph 71% 0.00 in 0 W/m2
04:39 8.5 °F 1 °F 30.38 in NNE 0.7 mph 3 mph 71% 0.00 in 0 W/m2
04:44 8.4 °F 0.9 °F 30.37 in NE 0.9 mph 4 mph 71% 0.00 in 0 W/m2
04:49 8.3 °F 0.9 °F 30.38 in ENE 1.4 mph 5 mph 71% 0.00 in 0 W/m2
04:54 8.2 °F 1 °F 30.38 in ENE 1.4 mph 5 mph 71.7% 0.00 in 0 W/m2
04:59 8.2 °F 0.9 °F 30.38 in NE 0.5 mph 3 mph 71.4% 0.00 in 0 W/m2
05:04 8.1 °F 1 °F 30.39 in ENE 1.1 mph 4 mph 72% 0.00 in 0 W/m2
05:09 8.1 °F 1 °F 30.39 in NNE 1.2 mph 4 mph 72% 0.00 in 0 W/m2
05:14 8.1 °F 0.9 °F 30.39 in NNW 1.5 mph 5 mph 72% 0.00 in 0 W/m2
05:19 8 °F 0.9 °F 30.39 in ENE 1 mph 5 mph 72% 0.00 in 0 W/m2
05:24 8 °F 0.9 °F 30.39 in ENE 1.3 mph 4 mph 72% 0.00 in 0 W/m2
05:29 7.9 °F 0.8 °F 30.40 in ENE 0.4 mph 2 mph 72% 0.00 in 0 W/m2
05:34 7.9 °F 0.8 °F 30.40 in ENE 0.9 mph 2 mph 72% 0.00 in 0 W/m2
05:39 7.8 °F 0.7 °F 30.41 in ENE 1.6 mph 4 mph 72% 0.00 in 0 W/m2
05:44 7.8 °F 0.8 °F 30.41 in ENE 1.4 mph 5 mph 72.3% 0.00 in 0 W/m2
05:49 7.9 °F 1 °F 30.41 in ENE 0.7 mph 3 mph 72.8% 0.00 in 0 W/m2
05:54 7.8 °F 0.8 °F 30.41 in East 1.5 mph 5 mph 72.3% 0.00 in 0 W/m2
05:59 7.8 °F 0.7 °F 30.42 in ENE 1 mph 3 mph 72% 0.00 in 0 W/m2
06:04 7.8 °F 0.6 °F 30.42 in ENE 0.4 mph 2 mph 72% 0.00 in 0 W/m2
06:09 7.7 °F 0.6 °F 30.42 in ENE 0.9 mph 2 mph 72% 0.00 in 0 W/m2
06:14 7.6 °F 0.5 °F 30.42 in ENE 1.2 mph 3 mph 72% 0.00 in 0 W/m2
06:19 7.6 °F 0.5 °F 30.43 in ENE 0.6 mph 3 mph 72% 0.00 in 0 W/m2
06:24 7.5 °F 0.6 °F 30.43 in ENE 0.4 mph 2 mph 72.6% 0.00 in 0 W/m2
06:29 7.5 °F 0.6 °F 30.43 in ENE 1 mph 3 mph 73% 0.00 in 0 W/m2
06:34 7.4 °F 0.5 °F 30.43 in NE 1.6 mph 5 mph 73% 0.00 in 0 W/m2
06:39 7.3 °F 0.5 °F 30.43 in ENE 0.7 mph 3 mph 73% 0.00 in 0 W/m2
06:44 7.3 °F 0.4 °F 30.43 in ENE 0.9 mph 3 mph 73% 0.00 in 0 W/m2
06:49 7.2 °F 0.4 °F 30.44 in NE 1 mph 3 mph 73% 0.00 in 0 W/m2
06:54 7.2 °F 0.6 °F 30.44 in NE 0.7 mph 4 mph 73.8% 0.00 in 0 W/m2
06:59 7.1 °F 0.6 °F 30.44 in NNE 0.9 mph 2 mph 74% 0.00 in 0 W/m2
07:04 7.1 °F 0.6 °F 30.44 in NNE 0.9 mph 4 mph 74% 0.00 in 0 W/m2
07:09 7.1 °F 0.6 °F 30.44 in NNE 1 mph 3 mph 74% 0.00 in 0 W/m2
07:14 7.1 °F 0.6 °F 30.45 in NNE 0.5 mph 2 mph 74% 0.00 in 0 W/m2
07:19 7.1 °F 0.6 °F 30.45 in NNE 1.1 mph 3 mph 74% 0.00 in 0 W/m2
07:24 7 °F 0.5 °F 30.45 in NNE 0.2 mph 3 mph 74% 0.00 in 0 W/m2
07:29 7 °F 0.6 °F 30.46 in NNE 0.9 mph 3 mph 74.4% 0.00 in 0 W/m2
07:34 7 °F 0.8 °F 30.45 in NNE 0.8 mph 2 mph 75% 0.00 in 0 W/m2
07:39 7 °F 0.7 °F 30.45 in NE 0.7 mph 3 mph 75% 0.00 in 0 W/m2
07:44 6.9 °F 0.7 °F 30.45 in ENE 0.3 mph 2 mph 75% 0.00 in 5 W/m2
07:49 6.9 °F 0.7 °F 30.46 in NE 1.2 mph 3 mph 75% 0.00 in 5 W/m2
07:54 6.9 °F 0.7 °F 30.46 in WNW 0.3 mph 3 mph 75% 0.00 in 9 W/m2
07:59 6.8 °F 0.6 °F 30.47 in WNW 0.2 mph 2 mph 75% 0.00 in 11 W/m2
08:04 6.8 °F 0.6 °F 30.47 in WNW 0.7 mph 2 mph 75% 0.00 in 18 W/m2
08:09 6.8 °F 0.6 °F 30.48 in WNW 0.6 mph 2 mph 75% 0.00 in 32 W/m2
08:14 6.9 °F 0.7 °F 30.48 in WNW 1.5 mph 3 mph 75% 0.00 in 37 W/m2
08:19 7.2 °F 1.1 °F 30.48 in NW 1.6 mph 3 mph 75.8% 0.00 in 60 W/m2
08:24 7.7 °F 1.8 °F 30.48 in NNW 1.4 mph 4 mph 76% 0.00 in 67 W/m2
08:29 8.1 °F 1.9 °F 30.48 in North 1.9 mph 5 mph 75.1% 0.00 in 95 W/m2
08:34 8.5 °F 2.1 °F 30.49 in North 2.1 mph 5 mph 74.6% 0.00 in 102 W/m2
08:39 8.9 °F 2.3 °F 30.49 in NNW 1.1 mph 5 mph 74% 0.00 in 116 W/m2
08:44 9.4 °F 2.6 °F 30.49 in NNW 3.2 mph 6 mph 73.3% 0.00 in 137 W/m2
08:49 9.7 °F 2.6 °F 30.49 in North 1.4 mph 5 mph 72.2% 0.00 in 141 W/m2
08:54 9.9 °F 2.5 °F 30.49 in North 2.2 mph 6 mph 71.3% 0.00 in 153 W/m2
08:59 10 °F 2.2 °F 30.49 in NNW 1.9 mph 6 mph 70.2% 0.00 in 192 W/m2
09:04 10.3 °F 2.5 °F 30.50 in NNW 2.1 mph 6 mph 70.1% 0.00 in 204 W/m2
09:09 10.7 °F 2.9 °F 30.50 in North 2.1 mph 5 mph 70% 0.00 in 207 W/m2
09:14 10.9 °F 2.9 °F 30.50 in North 2.2 mph 5 mph 69.3% 0.00 in 195 W/m2
09:19 11.1 °F 2.9 °F 30.50 in North 1.6 mph 4 mph 69% 0.00 in 134 W/m2
09:24 11.1 °F 2.7 °F 30.50 in North 1.8 mph 5 mph 68.1% 0.00 in 236 W/m2
09:29 11.4 °F 2.9 °F 30.50 in NNW 2.1 mph 5 mph 68% 0.00 in 244 W/m2
09:34 11.8 °F 3.1 °F 30.50 in North 2.6 mph 5 mph 67.1% 0.00 in 279 W/m2
09:39 12.1 °F 2.9 °F 30.50 in NNW 2.9 mph 5 mph 66% 0.00 in 285 W/m2
09:44 12.7 °F 3.4 °F 30.51 in NNW 2.9 mph 5 mph 65.9% 0.00 in 267 W/m2
09:49 13.1 °F 3.6 °F 30.51 in NNW 1.1 mph 4 mph 65% 0.00 in 294 W/m2
09:54 13.6 °F 3.8 °F 30.51 in NW 2.4 mph 6 mph 64.2% 0.00 in 323 W/m2
09:58 14 °F 3.7 °F 30.51 in NW 1.8 mph 5 mph 63% 0.00 in 330 W/m2
66th and South
Compliments of Weather Underground - 10.59 mb